Al Rawdah — V7VM8 — position and weather

sailwx.info

Track history (hours):
 
Tides and Currents Weather Stations Pressure Air Temp Water Temp Dewpoint Dewpoint Depression Visibility Wind Speed Wind Dir Waves Ship Positions

Al Rawdah

Last reported at 2017-Mar-11 19:33 UTC. Time now 2017-Mar-25 13:44 UTC.
Position N 35°46' E 014°40'.
Warning: this ship's position is 13 days out of date.

Length 307 m; draft 12.7 m.

Type: Ship (hazmat cat A). MMSI: 538004160.

Date/timePositionNaut miles runAvg speedWind from/ knotsBaromVisibWave heightAir tempDewpointWater temp
2017-Mar-11 19:33N 35°46' E 014°40'7 0.7
2017-Mar-11 10:11N 35°49' E 014°33'0 0.0
2017-Mar-11 05:23N 35°49' E 014°33'0 0.0
2017-Mar-11 00:20N 35°49' E 014°33'3 3.9
2017-Mar-10 23:33N 35°47' E 014°35'0 0.3
2017-Mar-10 22:33N 35°47' E 014°35'5 5.3
2017-Mar-10 21:33N 35°45' E 014°41'2 1.7
2017-Mar-10 20:31N 35°44' E 014°43'2 1.8
2017-Mar-10 19:31N 35°44' E 014°41'6 6.2
2017-Mar-10 18:30N 35°40' E 014°47'3 1.4
2017-Mar-10 16:29N 35°42' E 014°44'2 1.9
2017-Mar-10 15:32N 35°44' E 014°43'2 2.0
2017-Mar-10 14:32N 35°44' E 014°41'1 1.3
2017-Mar-10 13:33N 35°43' E 014°40'7 7.4
2017-Mar-10 12:33N 35°37' E 014°44'9 8.3
2017-Mar-10 11:30N 35°30' E 014°51'2 2.1
2017-Mar-10 10:33N 35°31' E 014°49'3 2.1
2017-Mar-10 09:22N 35°33' E 014°47'1 1.8
2017-Mar-10 08:33N 35°34' E 014°45'2 1.6
2017-Mar-10 07:33N 35°35' E 014°44'1 1.4
2017-Mar-10 06:33N 35°36' E 014°43'14 6.8
2017-Mar-10 04:33N 35°40' E 014°27'1211.6
2017-Mar-10 03:33N 35°46' E 014°15'1111.6
2017-Mar-10 02:33N 35°54' E 014°05'1211.8
2017-Mar-10 01:33N 36°02' E 013°54'1211.8
2017-Mar-10 00:33N 36°10' E 013°43'1211.8
2017-Mar-09 23:33N 36°18' E 013°33'1711.8
2017-Mar-09 22:09N 36°30' E 013°18'811.5
2017-Mar-09 21:29N 36°35' E 013°11'36612.2
2017-Mar-08 15:30N 42°10' E 009°58'1112.2
2017-Mar-08 14:33N 42°20' E 009°52'2512.2
2017-Mar-08 12:33N 42°44' E 009°42'1312.8
2017-Mar-08 11:33N 42°56' E 009°37'1313.0
2017-Mar-08 10:34N 43°08' E 009°32'1313.1
2017-Mar-08 09:33N 43°21' E 009°27'1312.6
2017-Mar-08 08:33N 43°33' E 009°21'1313.0
2017-Mar-08 07:34N 43°45' E 009°14'1313.0
2017-Mar-08 06:33N 43°57' E 009°08'1312.6
2017-Mar-08 05:33N 44°09' E 009°03'1413.6
2017-Mar-08 04:33N 44°22' E 008°57'3 2.8
2017-Mar-08 03:33N 44°24' E 008°55'0 0.0
2017-Mar-08 02:33N 44°24' E 008°55'0 0.0
2017-Mar-08 01:33N 44°24' E 008°55'0 0.0
2017-Mar-08 00:33N 44°24' E 008°55'0 0.0
2017-Mar-07 23:33N 44°24' E 008°55'0 0.0
2017-Mar-07 22:34N 44°24' E 008°55'0 0.0
2017-Mar-07 21:33N 44°24' E 008°55'0 0.0
2017-Mar-07 20:33N 44°24' E 008°55'0 0.0
2017-Mar-07 19:33N 44°24' E 008°55'0 0.0
2017-Mar-07 18:33N 44°24' E 008°55'0 0.0
2017-Mar-07 17:33N 44°24' E 008°55'0 0.0
2017-Mar-07 16:33N 44°24' E 008°55'0 0.0
2017-Mar-07 15:33N 44°24' E 008°55'0 0.0
2017-Mar-07 14:33N 44°24' E 008°55'0 0.0
2017-Mar-07 13:33N 44°24' E 008°55'0 0.0
2017-Mar-07 12:33N 44°24' E 008°55'0 0.0
2017-Mar-07 11:33N 44°24' E 008°55'0 0.0
2017-Mar-07 10:33N 44°24' E 008°55'0 0.0
2017-Mar-07 09:33N 44°24' E 008°55'0 0.0
2017-Mar-07 08:33N 44°24' E 008°55'0 0.0
2017-Mar-07 07:34N 44°24' E 008°55'0 0.0
2017-Mar-07 06:33N 44°24' E 008°55'0 0.0
2017-Mar-07 05:33N 44°24' E 008°55'3 3.0
2017-Mar-07 04:34N 44°22' E 008°58'6 6.0
2017-Mar-07 03:33N 44°16' E 008°57'7 7.3
2017-Mar-07 02:33N 44°10' E 008°51'9 9.3
2017-Mar-07 01:33N 44°04' E 008°42'9 9.3
2017-Mar-07 00:33N 43°58' E 008°32'10 9.5
2017-Mar-06 23:33N 43°52' E 008°22'9 9.0
2017-Mar-06 22:33N 43°46' E 008°13'8 8.2
2017-Mar-06 21:33N 43°42' E 008°03'10 9.5
2017-Mar-06 20:33N 43°37' E 007°51'1010.3
2017-Mar-06 19:34N 43°32' E 007°39'9 9.4
2017-Mar-06 18:33N 43°27' E 007°28'9 8.8
2017-Mar-06 17:33N 43°21' E 007°19'9 8.8
2017-Mar-06 16:33N 43°16' E 007°09'9 8.9
2017-Mar-06 15:33N 43°10' E 006°60'1110.5
2017-Mar-06 14:32N 43°03' E 006°49'7515.0
2017-Mar-06 09:32N 42°14' E 005°32'10115.8
2017-Mar-06 03:07N 41°06' E 003°52'1115.3
2017-Mar-06 02:22N 40°58' E 003°41'1315.7
2017-Mar-06 01:33N 40°49' E 003°29'1615.6
2017-Mar-06 00:33N 40°38' E 003°14'1515.3
2017-Mar-05 23:33N 40°28' E 002°60'1515.0
2017-Mar-05 22:33N 40°18' E 002°45'1515.3
2017-Mar-05 21:33N 40°08' E 002°29'1515.1
2017-Mar-05 20:33N 39°58' E 002°15'1515.1
2017-Mar-05 19:33N 39°47' E 002°01'1514.8
2017-Mar-05 18:33N 39°36' E 001°48'1414.3
2017-Mar-05 17:33N 39°27' E 001°34'1413.8
2017-Mar-05 16:33N 39°18' E 001°21'1514.6
2017-Mar-05 15:33N 39°07' E 001°07'1514.5
2017-Mar-05 14:29N 38°54' E 000°57'1413.8
2017-Mar-05 13:29N 38°42' E 000°48'1612.7
2017-Mar-05 12:14N 38°30' E 000°35'6312.5
2017-Mar-05 07:14N 37°43' W 000°18'811.4
2017-Mar-05 06:33N 37°38' W 000°25'1211.6
2017-Mar-05 05:33N 37°30' W 000°35'1111.1
2017-Mar-05 04:33N 37°22' W 000°46'1110.8
2017-Mar-05 03:33N 37°15' W 000°56'1110.6
2017-Mar-05 02:33N 37°08' W 001°06'18911.7
2017-Mar-04 10:24N 36°03' W 004°47'1213.8
2017-Mar-04 09:32N 36°01' W 005°02'1414.7
2017-Mar-04 08:33N 35°59' W 005°19'10 9.9
2017-Mar-04 07:33N 35°54' W 005°30'0 0.0
2017-Mar-04 06:30N 35°54' W 005°30'0 0.0
2017-Mar-04 05:33N 35°54' W 005°30'0 0.0
2017-Mar-04 04:33N 35°54' W 005°30'0 0.0
2017-Mar-04 03:33N 35°54' W 005°30'0 0.0
2017-Mar-04 02:30N 35°54' W 005°30'0 0.0
2017-Mar-04 01:33N 35°54' W 005°30'0 0.0
2017-Mar-04 00:33N 35°54' W 005°30'0 0.0
2017-Mar-03 23:33N 35°54' W 005°30'0 0.0
2017-Mar-03 22:33N 35°54' W 005°30'0 0.0
2017-Mar-03 21:33N 35°54' W 005°30'0 0.0
2017-Mar-03 20:33N 35°54' W 005°30'0 0.0
2017-Mar-03 19:33N 35°54' W 005°30'0 0.0
2017-Mar-03 18:33N 35°54' W 005°30'0 0.0
2017-Mar-03 17:33N 35°54' W 005°30'0 0.0
2017-Mar-03 16:33N 35°54' W 005°30'0 0.0
2017-Mar-03 15:33N 35°54' W 005°30'0 0.0
2017-Mar-03 14:33N 35°54' W 005°30'0 0.0
2017-Mar-03 13:33N 35°54' W 005°30'0 0.0
2017-Mar-03 12:12N 35°54' W 005°30'0 0.0
2017-Mar-03 11:21N 35°54' W 005°30'0 0.0
2017-Mar-03 10:33N 35°54' W 005°30'0 0.0
2017-Mar-03 09:33N 35°54' W 005°30'0 0.0
2017-Mar-03 08:33N 35°54' W 005°30'2 2.4
2017-Mar-03 07:33N 35°55' W 005°32'5 5.2
2017-Mar-03 06:33N 35°59' W 005°28'6 5.7
2017-Mar-03 05:33N 36°00' W 005°21'6 5.5
2017-Mar-03 04:34N 36°02' W 005°15'4 4.3
2017-Mar-03 03:33N 36°04' W 005°10'5 4.9
2017-Mar-03 02:33N 36°06' W 005°04'5 5.2
2017-Mar-03 01:33N 36°07' W 004°58'6 5.7
2017-Mar-03 00:34N 36°07' W 004°51'6 6.0
2017-Mar-02 23:33N 36°08' W 004°44'22 6.5
2017-Mar-02 20:08N 36°12' W 004°16'5 6.8
2017-Mar-02 19:27N 36°12' W 004°11'6 6.8
2017-Mar-02 18:33N 36°13' W 004°03'10 7.0
2017-Mar-02 17:04N 36°15' W 003°50'6 7.0
2017-Mar-02 16:10N 36°15' W 003°43'151 8.6
2017-Mar-01 22:33N 37°21' W 000°52'2311.3
2017-Mar-01 20:33N 37°36' W 000°31'  
Track history (hours):
 
Tides and Currents Weather Stations Pressure Air Temp Water Temp Dewpoint Dewpoint Depression Visibility Wind Speed Wind Dir Waves Ship Positions

Al Rawdah

Last reported at 2017-Mar-11 19:33 UTC. Time now 2017-Mar-25 13:44 UTC.
Position N 35°46' E 014°40'.
Warning: this ship's position is 13 days out of date.

Length 307 m; draft 12.7 m.

Type: Ship (hazmat cat A). MMSI: 538004160.

Date/timePositionNaut miles runAvg speedWind from/ knotsBaromVisibWave heightAir tempDewpointWater temp
2017-Mar-11 19:33N 35°46' E 014°40'7 0.7
2017-Mar-11 10:11N 35°49' E 014°33'0 0.0
2017-Mar-11 05:23N 35°49' E 014°33'0 0.0
2017-Mar-11 00:20N 35°49' E 014°33'3 3.9
2017-Mar-10 23:33N 35°47' E 014°35'0 0.3
2017-Mar-10 22:33N 35°47' E 014°35'5 5.3
2017-Mar-10 21:33N 35°45' E 014°41'2 1.7
2017-Mar-10 20:31N 35°44' E 014°43'2 1.8
2017-Mar-10 19:31N 35°44' E 014°41'6 6.2
2017-Mar-10 18:30N 35°40' E 014°47'3 1.4
2017-Mar-10 16:29N 35°42' E 014°44'2 1.9
2017-Mar-10 15:32N 35°44' E 014°43'2 2.0
2017-Mar-10 14:32N 35°44' E 014°41'1 1.3
2017-Mar-10 13:33N 35°43' E 014°40'7 7.4
2017-Mar-10 12:33N 35°37' E 014°44'9 8.3
2017-Mar-10 11:30N 35°30' E 014°51'2 2.1
2017-Mar-10 10:33N 35°31' E 014°49'3 2.1
2017-Mar-10 09:22N 35°33' E 014°47'1 1.8
2017-Mar-10 08:33N 35°34' E 014°45'2 1.6
2017-Mar-10 07:33N 35°35' E 014°44'1 1.4
2017-Mar-10 06:33N 35°36' E 014°43'14 6.8
2017-Mar-10 04:33N 35°40' E 014°27'1211.6
2017-Mar-10 03:33N 35°46' E 014°15'1111.6
2017-Mar-10 02:33N 35°54' E 014°05'1211.8
2017-Mar-10 01:33N 36°02' E 013°54'1211.8
2017-Mar-10 00:33N 36°10' E 013°43'1211.8
2017-Mar-09 23:33N 36°18' E 013°33'1711.8
2017-Mar-09 22:09N 36°30' E 013°18'811.5
2017-Mar-09 21:29N 36°35' E 013°11'36612.2
2017-Mar-08 15:30N 42°10' E 009°58'1112.2
2017-Mar-08 14:33N 42°20' E 009°52'2512.2
2017-Mar-08 12:33N 42°44' E 009°42'1312.8
2017-Mar-08 11:33N 42°56' E 009°37'1313.0
2017-Mar-08 10:34N 43°08' E 009°32'1313.1
2017-Mar-08 09:33N 43°21' E 009°27'1312.6
2017-Mar-08 08:33N 43°33' E 009°21'1313.0
2017-Mar-08 07:34N 43°45' E 009°14'1313.0
2017-Mar-08 06:33N 43°57' E 009°08'1312.6
2017-Mar-08 05:33N 44°09' E 009°03'1413.6
2017-Mar-08 04:33N 44°22' E 008°57'3 2.8
2017-Mar-08 03:33N 44°24' E 008°55'0 0.0
2017-Mar-08 02:33N 44°24' E 008°55'0 0.0
2017-Mar-08 01:33N 44°24' E 008°55'0 0.0
2017-Mar-08 00:33N 44°24' E 008°55'0 0.0
2017-Mar-07 23:33N 44°24' E 008°55'0 0.0
2017-Mar-07 22:34N 44°24' E 008°55'0 0.0
2017-Mar-07 21:33N 44°24' E 008°55'0 0.0
2017-Mar-07 20:33N 44°24' E 008°55'0 0.0
2017-Mar-07 19:33N 44°24' E 008°55'0 0.0
2017-Mar-07 18:33N 44°24' E 008°55'0 0.0
2017-Mar-07 17:33N 44°24' E 008°55'0 0.0
2017-Mar-07 16:33N 44°24' E 008°55'0 0.0
2017-Mar-07 15:33N 44°24' E 008°55'0 0.0
2017-Mar-07 14:33N 44°24' E 008°55'0 0.0
2017-Mar-07 13:33N 44°24' E 008°55'0 0.0
2017-Mar-07 12:33N 44°24' E 008°55'0 0.0
2017-Mar-07 11:33N 44°24' E 008°55'0 0.0
2017-Mar-07 10:33N 44°24' E 008°55'0 0.0
2017-Mar-07 09:33N 44°24' E 008°55'0 0.0
2017-Mar-07 08:33N 44°24' E 008°55'0 0.0
2017-Mar-07 07:34N 44°24' E 008°55'0 0.0
2017-Mar-07 06:33N 44°24' E 008°55'0 0.0
2017-Mar-07 05:33N 44°24' E 008°55'3 3.0
2017-Mar-07 04:34N 44°22' E 008°58'6 6.0
2017-Mar-07 03:33N 44°16' E 008°57'7 7.3
2017-Mar-07 02:33N 44°10' E 008°51'9 9.3
2017-Mar-07 01:33N 44°04' E 008°42'9 9.3
2017-Mar-07 00:33N 43°58' E 008°32'10 9.5
2017-Mar-06 23:33N 43°52' E 008°22'9 9.0
2017-Mar-06 22:33N 43°46' E 008°13'8 8.2
2017-Mar-06 21:33N 43°42' E 008°03'10 9.5
2017-Mar-06 20:33N 43°37' E 007°51'1010.3
2017-Mar-06 19:34N 43°32' E 007°39'9 9.4
2017-Mar-06 18:33N 43°27' E 007°28'9 8.8
2017-Mar-06 17:33N 43°21' E 007°19'9 8.8
2017-Mar-06 16:33N 43°16' E 007°09'9 8.9
2017-Mar-06 15:33N 43°10' E 006°60'1110.5
2017-Mar-06 14:32N 43°03' E 006°49'7515.0
2017-Mar-06 09:32N 42°14' E 005°32'10115.8
2017-Mar-06 03:07N 41°06' E 003°52'1115.3
2017-Mar-06 02:22N 40°58' E 003°41'1315.7
2017-Mar-06 01:33N 40°49' E 003°29'1615.6
2017-Mar-06 00:33N 40°38' E 003°14'1515.3
2017-Mar-05 23:33N 40°28' E 002°60'1515.0
2017-Mar-05 22:33N 40°18' E 002°45'1515.3
2017-Mar-05 21:33N 40°08' E 002°29'1515.1
2017-Mar-05 20:33N 39°58' E 002°15'1515.1
2017-Mar-05 19:33N 39°47' E 002°01'1514.8
2017-Mar-05 18:33N 39°36' E 001°48'1414.3
2017-Mar-05 17:33N 39°27' E 001°34'1413.8
2017-Mar-05 16:33N 39°18' E 001°21'1514.6
2017-Mar-05 15:33N 39°07' E 001°07'1514.5
2017-Mar-05 14:29N 38°54' E 000°57'1413.8
2017-Mar-05 13:29N 38°42' E 000°48'1612.7
2017-Mar-05 12:14N 38°30' E 000°35'6312.5
2017-Mar-05 07:14N 37°43' W 000°18'811.4
2017-Mar-05 06:33N 37°38' W 000°25'1211.6
2017-Mar-05 05:33N 37°30' W 000°35'1111.1
2017-Mar-05 04:33N 37°22' W 000°46'1110.8
2017-Mar-05 03:33N 37°15' W 000°56'1110.6
2017-Mar-05 02:33N 37°08' W 001°06'18911.7
2017-Mar-04 10:24N 36°03' W 004°47'1213.8
2017-Mar-04 09:32N 36°01' W 005°02'1414.7
2017-Mar-04 08:33N 35°59' W 005°19'10 9.9
2017-Mar-04 07:33N 35°54' W 005°30'0 0.0
2017-Mar-04 06:30N 35°54' W 005°30'0 0.0
2017-Mar-04 05:33N 35°54' W 005°30'0 0.0
2017-Mar-04 04:33N 35°54' W 005°30'0 0.0
2017-Mar-04 03:33N 35°54' W 005°30'0 0.0
2017-Mar-04 02:30N 35°54' W 005°30'0 0.0
2017-Mar-04 01:33N 35°54' W 005°30'0 0.0
2017-Mar-04 00:33N 35°54' W 005°30'0 0.0
2017-Mar-03 23:33N 35°54' W 005°30'0 0.0
2017-Mar-03 22:33N 35°54' W 005°30'0 0.0
2017-Mar-03 21:33N 35°54' W 005°30'0 0.0
2017-Mar-03 20:33N 35°54' W 005°30'0 0.0
2017-Mar-03 19:33N 35°54' W 005°30'0 0.0
2017-Mar-03 18:33N 35°54' W 005°30'0 0.0
2017-Mar-03 17:33N 35°54' W 005°30'0 0.0
2017-Mar-03 16:33N 35°54' W 005°30'0 0.0
2017-Mar-03 15:33N 35°54' W 005°30'0 0.0
2017-Mar-03 14:33N 35°54' W 005°30'0 0.0
2017-Mar-03 13:33N 35°54' W 005°30'0 0.0
2017-Mar-03 12:12N 35°54' W 005°30'0 0.0
2017-Mar-03 11:21N 35°54' W 005°30'0 0.0
2017-Mar-03 10:33N 35°54' W 005°30'0 0.0
2017-Mar-03 09:33N 35°54' W 005°30'0 0.0
2017-Mar-03 08:33N 35°54' W 005°30'2 2.4
2017-Mar-03 07:33N 35°55' W 005°32'5 5.2
2017-Mar-03 06:33N 35°59' W 005°28'6 5.7
2017-Mar-03 05:33N 36°00' W 005°21'6 5.5
2017-Mar-03 04:34N 36°02' W 005°15'4 4.3
2017-Mar-03 03:33N 36°04' W 005°10'5 4.9
2017-Mar-03 02:33N 36°06' W 005°04'5 5.2
2017-Mar-03 01:33N 36°07' W 004°58'6 5.7
2017-Mar-03 00:34N 36°07' W 004°51'6 6.0
2017-Mar-02 23:33N 36°08' W 004°44'22 6.5
2017-Mar-02 20:08N 36°12' W 004°16'5 6.8
2017-Mar-02 19:27N 36°12' W 004°11'6 6.8
2017-Mar-02 18:33N 36°13' W 004°03'10 7.0
2017-Mar-02 17:04N 36°15' W 003°50'6 7.0
2017-Mar-02 16:10N 36°15' W 003°43'151 8.6
2017-Mar-01 22:33N 37°21' W 000°52'2311.3
2017-Mar-01 20:33N 37°36' W 000°31'  

Dump ship's entire track history